createdAt,value
2023-05-13T00:00:20.967Z,4.00
2023-05-13T00:02:49.927Z,4.20
2023-05-13T00:05:18.907Z,4.25
2023-05-13T00:07:47.820Z,4.55
2023-05-13T00:10:17.093Z,4.90
2023-05-13T00:12:46.601Z,4.32
2023-05-13T00:15:15.272Z,3.70
2023-05-13T00:17:43.831Z,4.63
2023-05-13T00:20:13.139Z,4.13
2023-05-13T00:22:43.568Z,4.90
2023-05-13T00:25:12.994Z,4.05
2023-05-13T00:27:41.736Z,4.65
2023-05-13T00:30:12.779Z,4.65
2023-05-13T00:32:40.993Z,5.00
2023-05-13T00:35:10.081Z,4.18
2023-05-13T00:37:38.214Z,4.88
2023-05-13T00:40:07.873Z,4.38
2023-05-13T00:42:36.554Z,4.55
2023-05-13T00:45:05.521Z,5.00
2023-05-13T00:47:35.276Z,4.72
2023-05-13T00:50:03.942Z,5.18
2023-05-13T00:52:32.475Z,4.85
2023-05-13T00:55:01.233Z,5.22
2023-05-13T00:57:29.975Z,5.05
2023-05-13T00:59:58.437Z,5.63
2023-05-13T01:02:34.785Z,5.28
2023-05-13T01:05:12.252Z,5.72
2023-05-13T01:07:50.977Z,5.65
2023-05-13T01:10:36.953Z,5.90
2023-05-13T01:13:11.069Z,6.10
2023-05-13T01:15:43.537Z,6.38
2023-05-13T01:18:15.061Z,6.40
2023-05-13T01:20:45.653Z,6.97
2023-05-13T01:23:15.233Z,6.72
2023-05-13T01:25:45.171Z,7.13
2023-05-13T01:28:14.053Z,7.35
2023-05-13T01:30:42.640Z,7.38
2023-05-13T01:33:11.359Z,7.22
2023-05-13T01:35:40.220Z,7.75
2023-05-13T01:38:09.087Z,7.07
2023-05-13T01:40:39.585Z,7.50
2023-05-13T01:43:08.299Z,7.57
2023-05-13T01:45:36.799Z,8.10
2023-05-13T01:48:05.487Z,7.78
2023-05-13T01:50:34.009Z,7.88
2023-05-13T01:53:03.149Z,9.00
2023-05-13T01:55:31.742Z,7.75
2023-05-13T01:58:01.204Z,9.20
2023-05-13T02:00:30.728Z,10.00
2023-05-13T02:02:59.406Z,10.32
2023-05-13T02:05:27.689Z,9.73
2023-05-13T02:07:55.883Z,10.10
2023-05-13T02:10:24.519Z,10.63
2023-05-13T02:12:53.080Z,10.80
2023-05-13T02:15:22.529Z,10.43
2023-05-13T02:17:51.536Z,10.57
2023-05-13T02:20:20.450Z,11.13
2023-05-13T02:22:49.744Z,11.98
2023-05-13T02:25:18.511Z,11.07
2023-05-13T02:27:46.782Z,10.98
2023-05-13T02:30:15.450Z,11.05
2023-05-13T02:32:46.871Z,11.40
2023-05-13T02:35:15.807Z,11.68
2023-05-13T02:37:44.530Z,11.32
2023-05-13T02:40:13.905Z,11.52
2023-05-13T02:42:43.569Z,12.07
2023-05-13T02:45:13.048Z,12.48
2023-05-13T02:47:41.567Z,12.50
2023-05-13T02:50:12.460Z,12.25
2023-05-13T02:52:40.637Z,12.20
2023-05-13T02:55:10.233Z,12.63
2023-05-13T02:57:38.742Z,13.23
2023-05-13T03:00:09.111Z,12.48
2023-05-13T03:02:37.472Z,12.50
2023-05-13T03:05:06.542Z,13.38
2023-05-13T03:07:36.218Z,12.73
2023-05-13T03:10:04.528Z,14.10
2023-05-13T03:12:35.196Z,13.27
2023-05-13T03:15:04.269Z,14.18
2023-05-13T03:17:33.578Z,14.23
2023-05-13T03:20:01.923Z,13.85
2023-05-13T03:22:30.068Z,12.93
2023-05-13T03:24:59.617Z,13.43
2023-05-13T03:27:28.394Z,15.35
2023-05-13T03:29:56.811Z,14.15
2023-05-13T03:32:25.350Z,15.48
2023-05-13T03:34:54.010Z,14.15
2023-05-13T03:37:22.474Z,15.38
2023-05-13T03:39:50.993Z,15.70
2023-05-13T03:42:21.645Z,15.85
2023-05-13T03:44:49.872Z,15.88
2023-05-13T03:47:18.104Z,15.30
2023-05-13T03:49:47.965Z,14.82
2023-05-13T03:52:17.055Z,13.70
2023-05-13T03:54:45.686Z,14.10
2023-05-13T03:57:13.840Z,14.85
2023-05-13T03:59:43.688Z,14.60
2023-05-13T04:02:11.802Z,14.77
2023-05-13T04:04:40.191Z,16.38
2023-05-13T04:07:08.962Z,15.57
2023-05-13T04:09:37.133Z,15.68
2023-05-13T04:12:06.125Z,15.07
2023-05-13T04:14:35.031Z,16.20
2023-05-13T04:17:04.701Z,16.77
2023-05-13T04:19:32.897Z,16.25
2023-05-13T04:22:01.116Z,15.02
2023-05-13T04:24:29.882Z,15.25
2023-05-13T04:26:59.527Z,15.13
2023-05-13T04:29:29.442Z,14.65
2023-05-13T04:31:57.547Z,14.13
2023-05-13T04:34:26.988Z,14.40
2023-05-13T04:36:55.402Z,13.38
2023-05-13T04:39:24.145Z,14.50
2023-05-13T04:41:53.127Z,13.75
2023-05-13T04:44:21.758Z,14.52
2023-05-13T04:46:50.553Z,13.85
2023-05-13T04:49:18.850Z,13.55
2023-05-13T04:51:48.648Z,13.63
2023-05-13T04:54:17.455Z,12.75
2023-05-13T04:56:46.308Z,13.93
2023-05-13T04:59:14.430Z,13.10
2023-05-13T05:01:42.897Z,13.45
2023-05-13T05:04:11.872Z,12.10
2023-05-13T05:06:39.911Z,12.52
2023-05-13T05:09:09.796Z,13.02
2023-05-13T05:11:39.151Z,11.73
2023-05-13T05:14:07.232Z,12.75
2023-05-13T05:16:35.554Z,12.30
2023-05-13T05:19:04.354Z,12.57
2023-05-13T05:21:32.710Z,12.30
2023-05-13T05:24:01.914Z,11.80
2023-05-13T05:26:31.408Z,12.73
2023-05-13T05:28:59.515Z,11.70
2023-05-13T05:31:28.549Z,11.65
2023-05-13T05:33:56.669Z,10.07
2023-05-13T05:36:27.358Z,10.82
2023-05-13T05:38:55.794Z,11.18
2023-05-13T05:41:23.794Z,11.02
2023-05-13T05:43:53.406Z,10.77
2023-05-13T05:46:22.801Z,9.13
2023-05-13T05:48:51.279Z,9.77
2023-05-13T05:51:19.661Z,9.55
2023-05-13T05:53:48.028Z,9.50
2023-05-13T05:56:16.025Z,9.23
2023-05-13T05:58:44.463Z,9.50
2023-05-13T06:01:14.548Z,9.10
2023-05-13T06:03:42.729Z,8.85
2023-05-13T06:06:11.308Z,9.57
2023-05-13T06:08:39.819Z,8.57
2023-05-13T06:11:09.347Z,8.18
2023-05-13T06:13:38.580Z,8.52
2023-05-13T06:16:07.293Z,8.02
2023-05-13T06:18:37.197Z,7.53
2023-05-13T06:21:07.768Z,7.03
2023-05-13T06:23:36.069Z,6.97
2023-05-13T06:26:04.438Z,6.45
2023-05-13T06:28:32.941Z,6.03
2023-05-13T06:31:01.423Z,5.85
2023-05-13T06:33:32.325Z,7.30
2023-05-13T06:36:01.961Z,6.82
2023-05-13T06:38:30.875Z,5.80
2023-05-13T06:41:00.359Z,4.60
2023-05-13T06:43:28.564Z,5.10
2023-05-13T06:45:57.102Z,4.72
2023-05-13T06:48:25.570Z,5.00
2023-05-13T06:50:53.868Z,5.03
2023-05-13T06:53:23.624Z,4.07
2023-05-13T06:55:52.201Z,4.43
2023-05-13T06:58:20.430Z,4.07
2023-05-13T07:00:49.674Z,4.85
2023-05-13T07:03:17.842Z,4.03
2023-05-13T07:05:46.033Z,3.90
2023-05-13T07:08:17.926Z,3.75
2023-05-13T07:10:47.645Z,3.47
2023-05-13T07:13:15.938Z,3.70
2023-05-13T07:15:44.143Z,3.40
2023-05-13T07:18:12.434Z,3.28
2023-05-13T07:20:40.663Z,3.22
2023-05-13T07:23:08.930Z,3.10
2023-05-13T07:25:37.254Z,3.67
2023-05-13T07:28:07.576Z,3.28
2023-05-13T07:30:35.901Z,4.00
2023-05-13T07:33:04.222Z,3.20
2023-05-13T07:35:32.605Z,3.28
2023-05-13T07:38:01.095Z,3.45
2023-05-13T07:40:29.148Z,3.00
2023-05-13T07:42:57.403Z,2.95
2023-05-13T07:45:27.701Z,3.20
2023-05-13T07:47:56.265Z,2.53
2023-05-13T07:50:28.054Z,3.17
2023-05-13T07:52:56.306Z,2.80
2023-05-13T07:55:24.359Z,2.90
2023-05-13T07:57:52.591Z,2.72
2023-05-13T08:00:21.179Z,2.90
2023-05-13T08:02:50.931Z,2.70
2023-05-13T08:05:19.501Z,2.85
2023-05-13T08:07:48.985Z,2.90
2023-05-13T08:10:17.595Z,2.70
2023-05-13T08:12:50.846Z,2.88
2023-05-13T08:15:19.189Z,3.45
2023-05-13T08:17:47.758Z,2.90
2023-05-13T08:20:17.388Z,3.50
2023-05-13T08:22:48.326Z,3.05
2023-05-13T08:25:16.359Z,2.97
2023-05-13T08:27:45.528Z,2.75
2023-05-13T08:30:15.954Z,3.35
2023-05-13T08:32:43.833Z,3.50
2023-05-13T08:35:12.139Z,2.70
2023-05-13T08:37:41.658Z,2.85
2023-05-13T08:40:12.031Z,3.33
2023-05-13T08:42:41.216Z,3.60
2023-05-13T08:45:10.940Z,3.10
2023-05-13T08:47:50.221Z,3.08
2023-05-13T08:50:19.437Z,2.90
2023-05-13T08:52:49.058Z,3.00
2023-05-13T08:55:17.311Z,3.10
2023-05-13T08:57:46.310Z,3.05
2023-05-13T09:00:18.033Z,2.83
2023-05-13T09:02:47.798Z,3.15
2023-05-13T09:05:16.840Z,2.85
2023-05-13T09:07:45.402Z,2.67
2023-05-13T09:10:15.157Z,2.63
2023-05-13T09:12:49.773Z,3.17
2023-05-13T09:15:20.802Z,3.05
2023-05-13T09:17:52.350Z,2.78
2023-05-13T09:20:25.372Z,3.15
2023-05-13T09:22:56.998Z,3.10
2023-05-13T09:25:27.291Z,3.35
2023-05-13T09:27:58.764Z,2.70
2023-05-13T09:30:27.741Z,3.13
2023-05-13T09:33:10.804Z,3.38
2023-05-13T09:38:15.762Z,2.92
2023-05-13T09:40:52.976Z,3.47
2023-05-13T09:43:23.186Z,3.08
2023-05-13T09:45:58.127Z,3.15
2023-05-13T09:48:27.315Z,3.00
2023-05-13T09:50:56.826Z,3.40
2023-05-13T09:53:24.940Z,3.05
2023-05-13T09:55:56.181Z,2.58
2023-05-13T09:58:29.046Z,2.72
2023-05-13T10:00:57.813Z,2.80
2023-05-13T10:03:26.565Z,2.40
2023-05-13T10:05:55.316Z,2.60
2023-05-13T10:08:24.752Z,2.58
2023-05-13T10:10:57.764Z,2.33
2023-05-13T10:13:26.343Z,2.97
2023-05-13T10:15:56.016Z,2.45
2023-05-13T10:18:25.468Z,2.50
2023-05-13T10:20:54.448Z,2.40
2023-05-13T10:23:24.894Z,2.60
2023-05-13T10:25:56.674Z,2.45
2023-05-13T10:28:28.393Z,2.97
2023-05-13T10:30:57.427Z,2.50
2023-05-13T10:33:26.196Z,3.25
2023-05-13T10:36:07.945Z,2.50
2023-05-13T10:38:52.180Z,2.70
2023-05-13T10:41:40.489Z,2.75
2023-05-13T10:44:09.883Z,2.88
2023-05-13T10:46:40.794Z,3.30
2023-05-13T10:49:16.120Z,2.33
2023-05-13T10:51:48.343Z,2.00
2023-05-13T10:54:20.622Z,2.50
2023-05-13T10:56:58.003Z,2.83
2023-05-13T10:59:30.736Z,3.20
2023-05-13T11:02:02.305Z,3.30
2023-05-13T11:04:31.207Z,2.70
2023-05-13T11:07:16.668Z,3.13
2023-05-13T11:09:51.161Z,2.65
2023-05-13T11:12:20.561Z,2.97
2023-05-13T11:14:48.980Z,3.28
2023-05-13T11:17:20.367Z,3.47
2023-05-13T11:19:51.128Z,3.92
2023-05-13T11:22:22.323Z,2.50
2023-05-13T11:25:07.087Z,3.00
2023-05-13T11:27:40.519Z,2.50
2023-05-13T11:30:23.157Z,2.92
2023-05-13T11:32:56.873Z,2.85
2023-05-13T11:35:27.003Z,2.50
2023-05-13T11:37:58.235Z,2.50
2023-05-13T11:42:59.417Z,2.40
2023-05-13T11:45:29.777Z,2.50
2023-05-13T11:47:59.274Z,2.60
2023-05-13T11:50:30.436Z,2.15
2023-05-13T11:53:00.247Z,2.20
2023-05-13T11:55:29.341Z,2.97
2023-05-13T11:58:00.069Z,2.50
2023-05-13T12:00:29.435Z,2.50
2023-05-13T12:02:57.955Z,2.17
2023-05-13T12:05:27.397Z,2.10
2023-05-13T12:07:58.898Z,2.08
2023-05-13T12:10:28.681Z,2.47
2023-05-13T12:12:58.655Z,6.68
2023-05-13T12:15:27.012Z,2.78
2023-05-13T12:17:55.695Z,3.40
2023-05-13T12:20:26.551Z,2.85
2023-05-13T12:22:57.389Z,3.30
2023-05-13T12:25:43.276Z,3.38
2023-05-13T12:28:16.525Z,4.10
2023-05-13T12:30:51.743Z,3.88
2023-05-13T12:33:21.997Z,3.35
2023-05-13T12:35:52.396Z,3.92
2023-05-13T12:38:23.878Z,3.78
2023-05-13T12:40:53.086Z,4.10
2023-05-13T12:43:22.896Z,3.97
2023-05-13T12:45:55.906Z,3.72
2023-05-13T12:50:53.020Z,3.30
2023-05-13T12:53:21.332Z,3.05
2023-05-13T12:55:50.909Z,3.20
2023-05-13T12:58:18.856Z,3.05
2023-05-13T13:00:48.422Z,2.75
2023-05-13T13:03:16.416Z,2.67
2023-05-13T13:05:44.660Z,2.70
2023-05-13T13:08:13.150Z,2.70
2023-05-13T13:10:41.589Z,2.50
2023-05-13T13:13:09.885Z,3.17
2023-05-13T13:15:38.008Z,2.22
2023-05-13T13:18:07.931Z,2.72
2023-05-13T13:20:36.423Z,2.22
2023-05-13T13:23:06.559Z,2.70
2023-05-13T13:25:34.778Z,2.58
2023-05-13T13:28:04.181Z,2.60
2023-05-13T13:30:32.665Z,2.70
2023-05-13T13:33:01.171Z,2.55
2023-05-13T13:35:33.359Z,2.15
2023-05-13T13:38:01.372Z,2.47
2023-05-13T13:40:30.095Z,2.70
2023-05-13T13:42:58.252Z,2.58
2023-05-13T13:45:26.702Z,2.80
2023-05-13T13:47:54.688Z,2.70
2023-05-13T13:50:24.089Z,2.78
2023-05-13T13:52:55.034Z,2.78
2023-05-13T13:55:24.784Z,2.70
2023-05-13T13:57:53.154Z,2.70
2023-05-13T14:00:21.751Z,2.40
2023-05-13T14:02:50.106Z,2.42
2023-05-13T14:05:18.755Z,2.47
2023-05-13T14:07:53.758Z,2.83
2023-05-13T14:10:23.633Z,2.30
2023-05-13T14:12:51.998Z,2.30
2023-05-13T14:15:19.930Z,2.10
2023-05-13T14:17:48.158Z,2.78
2023-05-13T14:20:17.267Z,2.13
2023-05-13T14:22:45.330Z,2.17
2023-05-13T14:25:13.667Z,2.38
2023-05-13T14:27:42.893Z,2.88
2023-05-13T14:30:11.244Z,2.50
2023-05-13T14:32:39.234Z,2.20
2023-05-13T14:35:10.373Z,1.80
2023-05-13T14:37:38.361Z,1.70
2023-05-13T14:40:07.429Z,2.00
2023-05-13T14:42:35.515Z,2.08
2023-05-13T14:45:10.843Z,2.05
2023-05-13T14:47:40.483Z,2.10
2023-05-13T14:50:12.204Z,1.92
2023-05-13T14:52:41.056Z,2.00
2023-05-13T14:55:10.048Z,2.00
2023-05-13T14:57:37.992Z,1.77
2023-05-13T15:00:09.778Z,2.20
2023-05-13T15:02:38.040Z,2.05
2023-05-13T15:05:07.422Z,2.40
2023-05-13T15:07:35.582Z,2.50
2023-05-13T15:10:04.088Z,2.17
2023-05-13T15:12:32.332Z,2.15
2023-05-13T15:15:03.155Z,2.45
2023-05-13T15:17:32.498Z,2.53
2023-05-13T15:20:00.424Z,2.65
2023-05-13T15:22:29.472Z,3.15
2023-05-13T15:24:57.866Z,2.50
2023-05-13T15:27:28.112Z,3.25
2023-05-13T15:29:56.476Z,2.88
2023-05-13T15:32:24.943Z,3.40
2023-05-13T15:34:54.317Z,3.40
2023-05-13T15:37:22.718Z,3.33
2023-05-13T15:39:51.247Z,2.95
2023-05-13T15:42:19.411Z,3.58
2023-05-13T15:44:47.629Z,4.25
2023-05-13T15:47:15.877Z,4.18
2023-05-13T15:49:44.090Z,3.75
2023-05-13T15:52:14.709Z,4.10
2023-05-13T15:54:42.872Z,4.47
2023-05-13T15:57:10.793Z,4.45
2023-05-13T15:59:38.905Z,3.30
2023-05-13T16:02:07.401Z,3.47
2023-05-13T16:04:35.921Z,3.20
2023-05-13T16:07:04.374Z,3.10
2023-05-13T16:09:33.935Z,2.70
2023-05-13T16:12:03.129Z,2.67
2023-05-13T16:14:31.206Z,2.90
2023-05-13T16:17:01.210Z,3.05
2023-05-13T16:19:29.481Z,3.78
2023-05-13T16:21:58.011Z,3.35
2023-05-13T16:24:27.619Z,3.42
2023-05-13T16:26:57.463Z,2.50
2023-05-13T16:29:25.790Z,3.70
2023-05-13T16:31:54.597Z,2.95
2023-05-13T16:34:22.661Z,2.53
2023-05-13T16:36:50.849Z,2.90
2023-05-13T16:39:18.787Z,3.10
2023-05-13T16:41:47.565Z,2.80
2023-05-13T16:44:17.241Z,2.80
2023-05-13T16:46:45.710Z,4.05
2023-05-13T16:49:15.109Z,3.78
2023-05-13T16:51:43.809Z,3.60
2023-05-13T16:54:12.150Z,3.15
2023-05-13T16:56:40.562Z,3.15
2023-05-13T16:59:10.198Z,3.33
2023-05-13T17:01:41.457Z,3.28
2023-05-13T17:04:10.693Z,3.25
2023-05-13T17:06:38.927Z,3.60
2023-05-13T17:09:08.167Z,3.90
2023-05-13T17:11:37.940Z,3.33
2023-05-13T17:14:07.033Z,3.20
2023-05-13T17:16:38.638Z,3.63
2023-05-13T17:19:09.778Z,3.90
2023-05-13T17:21:38.286Z,4.60
2023-05-13T17:24:07.227Z,4.85
2023-05-13T17:26:38.631Z,4.78
2023-05-13T17:29:06.999Z,3.70
2023-05-13T17:31:35.858Z,3.85
2023-05-13T17:34:04.241Z,3.70
2023-05-13T17:36:34.224Z,4.10
2023-05-13T17:39:05.737Z,4.25
2023-05-13T17:41:34.200Z,4.00
2023-05-13T17:44:02.643Z,3.75
2023-05-13T17:46:30.778Z,4.47
2023-05-13T17:48:58.979Z,3.35
2023-05-13T17:51:30.262Z,3.78
2023-05-13T17:53:59.800Z,3.92
2023-05-13T17:56:27.968Z,3.03
2023-05-13T17:58:56.539Z,3.80
2023-05-13T18:01:24.661Z,3.72
2023-05-13T18:03:53.322Z,3.60
2023-05-13T18:06:21.163Z,3.35
2023-05-13T18:08:49.349Z,4.05
2023-05-13T18:11:19.100Z,5.68
2023-05-13T18:13:47.272Z,4.15
2023-05-13T18:16:17.267Z,3.05
2023-05-13T18:18:48.625Z,2.65
2023-05-13T18:21:17.065Z,2.67
2023-05-13T18:23:46.589Z,3.05
2023-05-13T18:26:16.270Z,2.90
2023-05-13T18:28:46.012Z,3.30
2023-05-13T18:31:15.997Z,3.90
2023-05-13T18:33:44.227Z,3.85
2023-05-13T18:36:12.616Z,4.07
2023-05-13T18:38:40.888Z,3.90
2023-05-13T18:41:10.532Z,3.40
2023-05-13T18:43:38.751Z,3.25
2023-05-13T18:46:08.826Z,3.83
2023-05-13T18:48:37.096Z,4.07
2023-05-13T18:51:05.433Z,4.10
2023-05-13T18:53:33.839Z,4.32
2023-05-13T18:56:02.297Z,4.32
2023-05-13T18:58:31.719Z,3.67
2023-05-13T19:01:00.557Z,3.45
2023-05-13T19:03:30.158Z,3.90
2023-05-13T19:05:58.654Z,3.83
2023-05-13T19:08:27.015Z,3.63
2023-05-13T19:10:55.279Z,4.20
2023-05-13T19:13:25.396Z,3.80
2023-05-13T19:15:56.581Z,3.70
2023-05-13T19:18:24.954Z,4.10
2023-05-13T19:20:54.642Z,4.47
2023-05-13T19:23:22.667Z,4.07
2023-05-13T19:25:50.623Z,4.40
2023-05-13T19:28:20.470Z,4.38
2023-05-13T19:30:49.264Z,4.55
2023-05-13T19:33:18.028Z,4.72
2023-05-13T19:35:47.357Z,5.38
2023-05-13T19:38:17.045Z,4.95
2023-05-13T19:40:45.343Z,5.50
2023-05-13T19:43:13.735Z,5.22
2023-05-13T19:45:45.018Z,5.03
2023-05-13T19:48:14.926Z,5.35
2023-05-13T19:50:44.439Z,5.57
2023-05-13T19:53:12.566Z,5.03
2023-05-13T19:55:42.760Z,5.40
2023-05-13T19:58:11.809Z,5.53
2023-05-13T20:00:40.356Z,6.22
2023-05-13T20:03:08.574Z,6.00
2023-05-13T20:05:37.080Z,5.63
2023-05-13T20:08:06.279Z,5.57
2023-05-13T20:10:35.463Z,6.30
2023-05-13T20:13:05.022Z,6.05
2023-05-13T20:15:33.260Z,6.57
2023-05-13T20:18:01.444Z,5.95
2023-05-13T20:20:30.098Z,5.63
2023-05-13T20:22:58.450Z,6.55
2023-05-13T20:25:26.875Z,6.90
2023-05-13T20:27:55.191Z,6.63
2023-05-13T20:30:25.286Z,6.25
2023-05-13T20:32:55.174Z,7.05
2023-05-13T20:35:23.662Z,7.53
2023-05-13T20:37:52.496Z,6.88
2023-05-13T20:40:21.188Z,7.55
2023-05-13T20:42:51.436Z,6.90
2023-05-13T20:45:19.592Z,6.80
2023-05-13T20:47:48.836Z,6.72
2023-05-13T20:50:16.987Z,7.78
2023-05-13T20:52:45.569Z,7.10
2023-05-13T20:55:15.736Z,7.15
2023-05-13T20:57:44.173Z,7.25
2023-05-13T21:00:14.636Z,7.40
2023-05-13T21:02:43.088Z,7.57
2023-05-13T21:05:13.431Z,7.50
2023-05-13T21:07:41.517Z,8.35
2023-05-13T21:10:10.491Z,8.90
2023-05-13T21:12:38.571Z,8.75
2023-05-13T21:15:07.773Z,8.88
2023-05-13T21:17:36.114Z,9.35
2023-05-13T21:20:04.302Z,8.35
2023-05-13T21:22:33.986Z,8.30
2023-05-13T21:25:02.128Z,9.52
2023-05-13T21:27:30.221Z,8.77
2023-05-13T21:29:58.632Z,7.85
2023-05-13T21:32:27.430Z,8.02
2023-05-13T21:34:57.846Z,8.27
2023-05-13T21:37:27.662Z,8.10
2023-05-13T21:40:00.784Z,7.80
2023-05-13T21:44:57.430Z,8.65
2023-05-13T21:47:25.557Z,7.70
2023-05-13T21:49:53.754Z,8.45
2023-05-13T21:52:22.301Z,8.77
2023-05-13T21:54:50.497Z,7.22
2023-05-13T21:57:20.052Z,9.07
2023-05-13T21:59:48.323Z,8.50
2023-05-13T22:02:16.706Z,9.07
2023-05-13T22:04:45.187Z,9.48
2023-05-13T22:07:13.922Z,10.15
2023-05-13T22:09:42.392Z,9.15
2023-05-13T22:12:10.769Z,8.98
2023-05-13T22:14:40.786Z,8.65
2023-05-13T22:17:10.237Z,8.25
2023-05-13T22:19:40.507Z,8.13
2023-05-13T22:22:08.647Z,8.57
2023-05-13T22:24:37.916Z,8.07
2023-05-13T22:27:06.535Z,8.38
2023-05-13T22:29:34.976Z,8.68
2023-05-13T22:32:08.440Z,8.00
2023-05-13T22:34:37.967Z,8.32
2023-05-13T22:37:06.950Z,8.70
2023-05-13T22:39:35.181Z,8.02
2023-05-13T22:42:03.722Z,8.93
2023-05-13T22:44:32.401Z,8.77
2023-05-13T22:47:01.060Z,8.30
2023-05-13T22:49:34.565Z,8.30
2023-05-13T22:52:02.866Z,8.50
2023-05-13T22:54:31.281Z,8.18
2023-05-13T22:57:00.223Z,8.77
2023-05-13T22:59:28.294Z,8.65
2023-05-13T23:01:56.700Z,9.52
2023-05-13T23:04:25.416Z,9.15
2023-05-13T23:06:55.295Z,9.00
2023-05-13T23:09:24.427Z,8.38
2023-05-13T23:11:52.527Z,8.52
2023-05-13T23:14:20.804Z,7.95
2023-05-13T23:16:49.393Z,8.13
2023-05-13T23:19:17.760Z,8.93
2023-05-13T23:21:45.919Z,8.63
2023-05-13T23:24:15.664Z,9.60
2023-05-13T23:26:47.132Z,9.40
2023-05-13T23:29:15.506Z,8.27
2023-05-13T23:31:43.876Z,9.50
2023-05-13T23:34:12.225Z,9.13
2023-05-13T23:36:40.436Z,9.52
2023-05-13T23:39:09.627Z,10.15
2023-05-13T23:41:39.256Z,11.02
2023-05-13T23:44:07.360Z,10.40
2023-05-13T23:46:35.782Z,10.98
2023-05-13T23:49:03.976Z,11.45
2023-05-13T23:51:32.415Z,10.30
2023-05-13T23:54:00.952Z,11.05
2023-05-13T23:56:29.757Z,10.68
2023-05-13T23:58:59.794Z,10.65
